Time,TemperatureF,DewpointF,PressureIn,WindDirection,WindDirectionDegrees,WindSpeedMPH,WindSpeedGustMPH,Humidity,HourlyPrecipIn,Conditions,Clouds,dailyrainin,SoftwareType,DateUTC
2013-10-13 00:11:00,64.4,57.0,30.10,North,355,4.0,-999.0,78,-99.99,,,0.00,weatherlink.com 1.10,2013-10-13 04:11:00,
2013-10-13 00:26:00,64.3,55.0,30.11,North,360,4.0,-999.0,71,-99.99,,,0.00,weatherlink.com 1.10,2013-10-13 04:26:00,
2013-10-13 00:41:00,63.7,53.0,30.11,NNW,340,4.0,-999.0,68,-99.99,,,0.00,weatherlink.com 1.10,2013-10-13 04:41:00,
2013-10-13 00:56:00,63.2,52.0,30.12,NNW,333,5.0,-999.0,66,-99.99,,,0.00,weatherlink.com 1.10,2013-10-13 04:56:00,
2013-10-13 01:11:00,62.8,50.0,30.12,North,355,6.0,-999.0,64,-99.99,,,0.00,weatherlink.com 1.10,2013-10-13 05:11:00,
2013-10-13 01:26:00,62.6,50.0,30.13,North,351,5.0,-999.0,63,-99.99,,,0.00,weatherlink.com 1.10,2013-10-13 05:26:00,
2013-10-13 01:42:00,62.2,50.0,30.13,North,355,4.0,-999.0,64,-99.99,,,0.00,weatherlink.com 1.10,2013-10-13 05:42:00,
2013-10-13 01:57:00,61.5,50.0,30.14,NNW,347,5.0,-999.0,66,-99.99,,,0.00,weatherlink.com 1.10,2013-10-13 05:57:00,
2013-10-13 02:12:00,60.7,50.0,30.14,North,350,4.0,-999.0,67,-99.99,,,0.00,weatherlink.com 1.10,2013-10-13 06:12:00,
2013-10-13 02:27:00,59.6,49.0,30.15,North,355,0.0,-999.0,68,-99.99,,,0.00,weatherlink.com 1.10,2013-10-13 06:27:00,
2013-10-13 02:42:00,58.7,49.0,30.16,NNW,343,2.0,-999.0,69,-99.99,,,0.00,weatherlink.com 1.10,2013-10-13 06:42:00,
2013-10-13 02:57:00,57.7,48.0,30.16,NNW,343,2.0,-999.0,71,-99.99,,,0.00,weatherlink.com 1.10,2013-10-13 06:57:00,
2013-10-13 03:12:00,57.1,48.0,30.16,NNW,344,1.0,-999.0,72,-99.99,,,0.00,weatherlink.com 1.10,2013-10-13 07:12:00,
2013-10-13 03:27:00,56.6,48.0,30.16,NNW,344,3.0,-999.0,73,-99.99,,,0.00,weatherlink.com 1.10,2013-10-13 07:27:00,
2013-10-13 03:42:00,56.1,48.0,30.17,NNW,344,2.0,-999.0,73,-99.99,,,0.00,weatherlink.com 1.10,2013-10-13 07:42:00,
2013-10-13 03:57:00,55.4,47.0,30.17,NNW,344,0.0,-999.0,74,-99.99,,,0.00,weatherlink.com 1.10,2013-10-13 07:57:00,
2013-10-13 04:12:00,54.0,47.0,30.18,NNW,344,0.0,-999.0,78,-99.99,,,0.00,weatherlink.com 1.10,2013-10-13 08:12:00,
2013-10-13 04:27:00,53.0,47.0,30.18,NNW,344,0.0,-999.0,81,-99.99,,,0.00,weatherlink.com 1.10,2013-10-13 08:27:00,
2013-10-13 04:42:00,52.0,47.0,30.18,NNW,344,0.0,-999.0,83,-99.99,,,0.00,weatherlink.com 1.10,2013-10-13 08:42:00,
2013-10-13 04:57:00,51.5,47.0,30.19,NNW,344,0.0,-999.0,85,-99.99,,,0.00,weatherlink.com 1.10,2013-10-13 08:57:00,
2013-10-13 05:12:00,51.4,47.0,30.19,NNW,344,0.0,-999.0,85,-99.99,,,0.00,weatherlink.com 1.10,2013-10-13 09:12:00,
2013-10-13 05:27:00,50.7,47.0,30.20,NNW,344,0.0,-999.0,86,-99.99,,,0.00,weatherlink.com 1.10,2013-10-13 09:27:00,
2013-10-13 05:42:00,50.5,46.0,30.20,NNW,344,0.0,-999.0,85,-99.99,,,0.00,weatherlink.com 1.10,2013-10-13 09:42:00,
2013-10-13 05:57:00,50.2,46.0,30.21,NNW,344,0.0,-999.0,86,-99.99,,,0.00,weatherlink.com 1.10,2013-10-13 09:57:00,
2013-10-13 06:12:00,50.4,46.0,30.22,NNW,344,1.0,-999.0,85,-99.99,,,0.00,weatherlink.com 1.10,2013-10-13 10:12:00,
2013-10-13 06:27:00,50.3,46.0,30.23,NNW,344,0.0,-999.0,84,-99.99,,,0.00,weatherlink.com 1.10,2013-10-13 10:27:00,
2013-10-13 06:42:00,50.0,45.0,30.23,NNW,344,0.0,-999.0,84,-99.99,,,0.00,weatherlink.com 1.10,2013-10-13 10:42:00,
2013-10-13 06:57:00,49.6,45.0,30.23,NNW,344,0.0,-999.0,85,-99.99,,,0.00,weatherlink.com 1.10,2013-10-13 10:57:00,
2013-10-13 07:12:00,49.1,45.0,30.24,NNW,344,1.0,-999.0,86,-99.99,,,0.00,weatherlink.com 1.10,2013-10-13 11:12:00,
2013-10-13 07:28:00,48.3,45.0,30.24,NNW,344,0.0,-999.0,87,-99.99,,,0.00,weatherlink.com 1.10,2013-10-13 11:28:00,
2013-10-13 07:43:00,47.7,45.0,30.24,NNW,344,0.0,-999.0,89,-99.99,,,0.00,weatherlink.com 1.10,2013-10-13 11:43:00,
2013-10-13 07:58:00,47.2,45.0,30.25,NNW,344,0.0,-999.0,90,-99.99,,,0.00,weatherlink.com 1.10,2013-10-13 11:58:00,
2013-10-13 08:13:00,47.0,44.0,30.25,NNW,344,0.0,-999.0,90,-99.99,,,0.00,weatherlink.com 1.10,2013-10-13 12:13:00,
2013-10-13 08:28:00,47.3,45.0,30.26,NNW,344,0.0,-999.0,91,-99.99,,,0.00,weatherlink.com 1.10,2013-10-13 12:28:00,
2013-10-13 08:43:00,47.9,46.0,30.27,NNW,344,0.0,-999.0,91,-99.99,,,0.00,weatherlink.com 1.10,2013-10-13 12:43:00,
2013-10-13 08:58:00,49.3,46.0,30.28,NNW,344,1.0,-999.0,89,-99.99,,,0.00,weatherlink.com 1.10,2013-10-13 12:58:00,
2013-10-13 09:13:00,50.8,47.0,30.28,NNW,344,2.0,-999.0,87,-99.99,,,0.00,weatherlink.com 1.10,2013-10-13 13:13:00,
2013-10-13 09:28:00,52.2,48.0,30.29,NNW,344,1.0,-999.0,86,-99.99,,,0.00,weatherlink.com 1.10,2013-10-13 13:28:00,
2013-10-13 09:43:00,53.9,49.0,30.30,NNW,344,0.0,-999.0,83,-99.99,,,0.00,weatherlink.com 1.10,2013-10-13 13:43:00,
2013-10-13 09:58:00,55.6,50.0,30.30,NNW,344,2.0,-999.0,80,-99.99,,,0.00,weatherlink.com 1.10,2013-10-13 13:58:00,
2013-10-13 10:13:00,57.6,50.0,30.30,North,5,0.0,-999.0,75,-99.99,,,0.00,weatherlink.com 1.10,2013-10-13 14:13:00,
2013-10-13 10:28:00,59.3,50.0,30.30,NE,41,3.0,-999.0,70,-99.99,,,0.00,weatherlink.com 1.10,2013-10-13 14:28:00,
2013-10-13 10:43:00,60.6,49.0,30.30,NE,51,4.0,-999.0,65,-99.99,,,0.00,weatherlink.com 1.10,2013-10-13 14:43:00,
2013-10-13 10:58:00,61.9,48.0,30.31,NE,40,0.0,-999.0,61,-99.99,,,0.00,weatherlink.com 1.10,2013-10-13 14:58:00,
2013-10-13 11:13:00,62.8,46.0,30.31,NNE,16,6.0,-999.0,55,-99.99,,,0.00,weatherlink.com 1.10,2013-10-13 15:13:00,
2013-10-13 11:28:00,63.7,44.0,30.31,NNE,20,5.0,-999.0,49,-99.99,,,0.00,weatherlink.com 1.10,2013-10-13 15:28:00,
2013-10-13 11:43:00,64.2,43.0,30.31,NE,42,4.0,-999.0,46,-99.99,,,0.00,weatherlink.com 1.10,2013-10-13 15:43:00,
2013-10-13 11:58:00,64.5,41.0,30.31,North,9,5.0,-999.0,43,-99.99,,,0.00,weatherlink.com 1.10,2013-10-13 15:58:00,
2013-10-13 12:13:00,64.7,42.0,30.31,ENE,65,4.0,-999.0,43,-99.99,,,0.00,weatherlink.com 1.10,2013-10-13 16:13:00,
2013-10-13 12:28:00,65.2,42.0,30.31,NE,49,4.0,-999.0,43,-99.99,,,0.00,weatherlink.com 1.10,2013-10-13 16:28:00,
2013-10-13 12:43:00,65.0,44.0,30.31,NE,53,4.0,-999.0,47,-99.99,,,0.00,weatherlink.com 1.10,2013-10-13 16:43:00,
2013-10-13 12:58:00,65.7,44.0,30.31,East,86,1.0,-999.0,46,-99.99,,,0.00,weatherlink.com 1.10,2013-10-13 16:58:00,
2013-10-13 13:13:00,66.2,43.0,30.30,NNW,334,5.0,-999.0,44,-99.99,,,0.00,weatherlink.com 1.10,2013-10-13 17:13:00,
2013-10-13 13:28:00,66.8,44.0,30.30,NE,49,5.0,-999.0,44,-99.99,,,0.00,weatherlink.com 1.10,2013-10-13 17:28:00,
2013-10-13 13:43:00,66.7,42.0,30.30,NNW,333,2.0,-999.0,41,-99.99,,,0.00,weatherlink.com 1.10,2013-10-13 17:43:00,
2013-10-13 13:58:00,67.4,41.0,30.30,NNW,329,5.0,-999.0,38,-99.99,,,0.00,weatherlink.com 1.10,2013-10-13 17:58:00,
2013-10-13 14:13:00,67.2,39.0,30.29,NNW,338,0.0,-999.0,36,-99.99,,,0.00,weatherlink.com 1.10,2013-10-13 18:13:00,
2013-10-13 14:28:00,68.0,41.0,30.28,NW,323,4.0,-999.0,38,-99.99,,,0.00,weatherlink.com 1.10,2013-10-13 18:28:00,
2013-10-13 14:43:00,68.6,43.0,30.28,NNW,327,1.0,-999.0,39,-99.99,,,0.00,weatherlink.com 1.10,2013-10-13 18:43:00,
2013-10-13 14:58:00,68.3,40.0,30.27,NNW,334,3.0,-999.0,36,-99.99,,,0.00,weatherlink.com 1.10,2013-10-13 18:58:00,
2013-10-13 15:13:00,68.8,41.0,30.27,NE,53,11.0,-999.0,36,-99.99,,,0.00,weatherlink.com 1.10,2013-10-13 19:13:00,
2013-10-13 15:28:00,68.8,39.0,30.27,NNW,345,6.0,-999.0,34,-99.99,,,0.00,weatherlink.com 1.10,2013-10-13 19:28:00,
2013-10-13 15:43:00,68.7,38.0,30.27,NE,53,3.0,-999.0,32,-99.99,,,0.00,weatherlink.com 1.10,2013-10-13 19:43:00,
2013-10-13 15:58:00,68.9,38.0,30.27,NW,317,3.0,-999.0,32,-99.99,,,0.00,weatherlink.com 1.10,2013-10-13 19:58:00,
2013-10-13 16:13:00,69.0,37.0,30.27,NNE,33,4.0,-999.0,31,-99.99,,,0.00,weatherlink.com 1.10,2013-10-13 20:13:00,
2013-10-13 16:28:00,69.7,39.0,30.26,North,5,2.0,-999.0,33,-99.99,,,0.00,weatherlink.com 1.10,2013-10-13 20:28:00,
2013-10-13 16:44:00,69.1,39.0,30.26,NE,41,1.0,-999.0,34,-99.99,,,0.00,weatherlink.com 1.10,2013-10-13 20:44:00,
2013-10-13 16:59:00,68.8,38.0,30.26,North,355,1.0,-999.0,32,-99.99,,,0.00,weatherlink.com 1.10,2013-10-13 20:59:00,
2013-10-13 17:14:00,69.1,39.0,30.26,NNW,341,3.0,-999.0,33,-99.99,,,0.00,weatherlink.com 1.10,2013-10-13 21:14:00,
2013-10-13 17:29:00,68.6,39.0,30.26,NE,34,4.0,-999.0,34,-99.99,,,0.00,weatherlink.com 1.10,2013-10-13 21:29:00,
2013-10-13 17:44:00,68.1,38.0,30.26,NNW,346,4.0,-999.0,33,-99.99,,,0.00,weatherlink.com 1.10,2013-10-13 21:44:00,
2013-10-13 17:59:00,67.8,38.0,30.26,North,355,1.0,-999.0,34,-99.99,,,0.00,weatherlink.com 1.10,2013-10-13 21:59:00,
2013-10-13 18:14:00,67.4,39.0,30.27,North,355,2.0,-999.0,35,-99.99,,,0.00,weatherlink.com 1.10,2013-10-13 22:14:00,
2013-10-13 18:29:00,66.8,37.0,30.27,North,355,3.0,-999.0,34,-99.99,,,0.00,weatherlink.com 1.10,2013-10-13 22:29:00,
2013-10-13 18:44:00,65.9,39.0,30.27,North,355,3.0,-999.0,37,-99.99,,,0.00,weatherlink.com 1.10,2013-10-13 22:44:00,
2013-10-13 18:59:00,64.3,39.0,30.27,North,355,0.0,-999.0,40,-99.99,,,0.00,weatherlink.com 1.10,2013-10-13 22:59:00,
2013-10-13 19:14:00,62.2,40.0,30.27,North,355,0.0,-999.0,45,-99.99,,,0.00,weatherlink.com 1.10,2013-10-13 23:14:00,
2013-10-13 19:29:00,60.8,40.0,30.27,North,355,0.0,-999.0,46,-99.99,,,0.00,weatherlink.com 1.10,2013-10-13 23:29:00,
2013-10-13 19:44:00,59.7,40.0,30.28,North,355,3.0,-999.0,49,-99.99,,,0.00,weatherlink.com 1.10,2013-10-13 23:44:00,
2013-10-13 19:59:00,59.2,42.0,30.29,NE,43,5.0,-999.0,53,-99.99,,,0.00,weatherlink.com 1.10,2013-10-13 23:59:00,
2013-10-13 20:14:00,58.8,41.0,30.29,NNE,29,6.0,-999.0,53,-99.99,,,0.00,weatherlink.com 1.10,2013-10-14 00:14:00,
2013-10-13 20:29:00,58.0,42.0,30.30,NNE,16,5.0,-999.0,55,-99.99,,,0.00,weatherlink.com 1.10,2013-10-14 00:29:00,
2013-10-13 20:44:00,57.2,41.0,30.30,NE,42,2.0,-999.0,56,-99.99,,,0.00,weatherlink.com 1.10,2013-10-14 00:44:00,
2013-10-13 20:59:00,56.2,41.0,30.31,NE,42,2.0,-999.0,58,-99.99,,,0.00,weatherlink.com 1.10,2013-10-14 00:59:00,
2013-10-13 21:14:00,55.5,42.0,30.31,NE,47,4.0,-999.0,60,-99.99,,,0.00,weatherlink.com 1.10,2013-10-14 01:14:00,
2013-10-13 21:29:00,54.4,42.0,30.31,NE,47,4.0,-999.0,63,-99.99,,,0.00,weatherlink.com 1.10,2013-10-14 01:29:00,
2013-10-13 21:44:00,54.0,42.0,30.32,NE,48,2.0,-999.0,64,-99.99,,,0.00,weatherlink.com 1.10,2013-10-14 01:44:00,
2013-10-13 21:59:00,53.1,42.0,30.32,NE,46,2.0,-999.0,66,-99.99,,,0.00,weatherlink.com 1.10,2013-10-14 01:59:00,
2013-10-13 22:14:00,52.7,42.0,30.32,NE,44,3.0,-999.0,66,-99.99,,,0.00,weatherlink.com 1.10,2013-10-14 02:14:00,
2013-10-13 22:29:00,52.0,42.0,30.32,NE,46,5.0,-999.0,68,-99.99,,,0.00,weatherlink.com 1.10,2013-10-14 02:29:00,
2013-10-13 22:44:00,51.9,42.0,30.33,NE,48,2.0,-999.0,69,-99.99,,,0.00,weatherlink.com 1.10,2013-10-14 02:44:00,
2013-10-13 22:59:00,50.9,42.0,30.33,NE,47,2.0,-999.0,71,-99.99,,,0.00,weatherlink.com 1.10,2013-10-14 02:59:00,
2013-10-13 23:14:00,50.5,42.0,30.33,NE,48,2.0,-999.0,72,-99.99,,,0.00,weatherlink.com 1.10,2013-10-14 03:14:00,
2013-10-13 23:29:00,49.7,41.0,30.34,NE,47,1.0,-999.0,73,-99.99,,,0.00,weatherlink.com 1.10,2013-10-14 03:29:00,
2013-10-13 23:44:00,49.1,42.0,30.34,NE,47,0.0,-999.0,75,-99.99,,,0.00,weatherlink.com 1.10,2013-10-14 03:44:00,
2013-10-13 23:59:00,48.6,41.0,30.35,NE,47,1.0,-999.0,76,-99.99,,,0.00,weatherlink.com 1.10,2013-10-14 03:59:00,